Time;durP1;ratioP1;P1;durP2;ratioP2;P2;SDS_P1;SDS_P2;PMS_P1;PMS_P2;Temp;Humidity;BMP_temperature;BMP_pressure;BME280_temperature;BME280_humidity;BME280_pressure;Samples;Min_cycle;Max_cycle;Signal;HPM_P1;HPM_P2
2021/07/17 00:00:25;;;;;;;29.30;21.43;;;;;;;20.49;97.36;96848.31;4984218;28;20182;-62
2021/07/17 00:02:51;;;;;;;28.57;21.17;;;;;;;20.23;99.06;96854.88;4974888;28;20174;-67
2021/07/17 00:05:17;;;;;;;30.60;21.97;;;;;;;20.41;98.61;96848.91;4974817;28;20205;-67
2021/07/17 00:07:44;;;;;;;25.93;20.00;;;;;;;20.36;97.92;96853.47;4975112;28;20178;-62
2021/07/17 00:10:19;;;;;;;26.10;21.67;;;;;;;20.08;99.20;96852.22;4975054;28;20405;-61
2021/07/17 00:12:45;;;;;;;25.27;20.07;;;;;;;20.12;99.37;96842.59;4974674;28;20417;-66
2021/07/17 00:15:13;;;;;;;28.83;21.90;;;;;;;20.16;99.28;96846.34;4976904;28;20438;-67
2021/07/17 00:17:40;;;;;;;27.70;20.57;;;;;;;20.13;99.54;96838.03;4974667;28;20170;-61
2021/07/17 00:20:09;;;;;;;28.97;22.73;;;;;;;20.30;98.78;96839.34;4974771;28;20508;-61
2021/07/17 00:22:36;;;;;;;29.70;21.67;;;;;;;20.20;99.02;96843.94;4974389;28;20417;-65
2021/07/17 00:25:04;;;;;;;26.10;22.77;;;;;;;20.34;98.19;96840.41;4989470;28;20460;-67
2021/07/17 00:27:31;;;;;;;32.77;22.67;;;;;;;20.19;99.73;96837.00;5013593;28;20439;-67
2021/07/17 00:29:56;;;;;;;27.60;22.43;;;;;;;20.40;98.48;96833.94;5002470;28;20479;-67
2021/07/17 00:32:22;;;;;;;27.50;21.73;;;;;;;20.52;98.01;96836.28;4994073;28;20265;-67
2021/07/17 00:34:47;;;;;;;31.00;21.57;;;;;;;20.44;97.86;96821.63;4993714;28;20651;-67
2021/07/17 00:37:13;;;;;;;27.77;22.33;;;;;;;20.33;97.94;96825.44;4994203;28;20179;-67
2021/07/17 00:39:38;;;;;;;25.87;21.63;;;;;;;20.43;97.45;96833.41;4994091;28;20175;-67
2021/07/17 00:42:04;;;;;;;30.27;22.97;;;;;;;20.37;96.98;96828.34;4993812;28;20637;-67
2021/07/17 00:44:29;;;;;;;29.50;23.00;;;;;;;20.12;98.42;96818.59;4984713;28;20214;-67
2021/07/17 00:46:56;;;;;;;29.30;22.50;;;;;;;20.27;97.73;96821.19;4974570;28;20177;-67
2021/07/17 00:49:28;;;;;;;29.47;22.20;;;;;;;20.26;97.73;96824.94;4974821;28;20696;-67
2021/07/17 00:51:53;;;;;;;30.23;22.70;;;;;;;20.30;97.59;96827.88;4974830;28;20441;-67
2021/07/17 00:54:20;;;;;;;31.30;22.50;;;;;;;20.15;98.29;96826.03;4974038;28;20465;-62
2021/07/17 00:56:47;;;;;;;28.40;22.00;;;;;;;20.37;97.48;96818.47;4974912;28;20178;-61
2021/07/17 00:59:17;;;;;;;26.83;21.33;;;;;;;20.34;97.22;96813.72;4983035;28;20790;-62
2021/07/17 01:01:43;;;;;;;31.70;23.10;;;;;;;20.40;96.47;96819.78;4997301;28;20898;-67
2021/07/17 01:04:09;;;;;;;27.60;22.10;;;;;;;20.38;96.32;96819.28;4993487;28;20503;-61
2021/07/17 01:06:35;;;;;;;28.97;23.60;;;;;;;20.42;96.06;96818.44;4992378;28;20910;-61
2021/07/17 01:09:01;;;;;;;28.00;22.13;;;;;;;20.42;95.85;96821.13;4996399;28;20425;-64
2021/07/17 01:11:26;;;;;;;31.30;23.87;;;;;;;20.52;95.76;96825.59;4997785;28;20231;-67
2021/07/17 01:13:51;;;;;;;25.67;19.57;;;;;;;20.53;95.30;96816.50;4997412;28;20560;-66
2021/07/17 01:16:17;;;;;;;27.37;22.00;;;;;;;20.41;95.87;96806.19;4991676;28;20213;-67
2021/07/17 01:18:43;;;;;;;27.57;21.70;;;;;;;20.47;95.71;96815.75;4978296;28;20174;-67
2021/07/17 01:21:15;;;;;;;28.10;22.70;;;;;;;20.45;95.48;96823.22;4978334;28;20232;-62
2021/07/17 01:23:41;;;;;;;29.17;21.83;;;;;;;20.52;95.24;96814.13;4977561;28;20919;-61
2021/07/17 01:26:06;;;;;;;26.83;20.33;;;;;;;20.55;95.02;96819.69;4978116;28;20420;-62
2021/07/17 01:28:31;;;;;;;29.30;22.70;;;;;;;20.49;95.34;96823.47;4978204;28;20174;-67
2021/07/17 01:30:57;;;;;;;26.20;21.37;;;;;;;20.54;94.92;96820.78;4981404;28;20184;-62
2021/07/17 01:33:22;;;;;;;27.70;21.77;;;;;;;20.52;95.02;96822.94;4997112;28;20205;-62
2021/07/17 01:35:49;;;;;;;26.10;20.60;;;;;;;20.51;95.25;96815.19;4997557;28;20188;-62
2021/07/17 01:38:15;;;;;;;24.93;21.63;;;;;;;20.38;95.23;96825.41;4997326;28;20525;-67
2021/07/17 01:40:40;;;;;;;27.53;20.70;;;;;;;20.39;96.03;96821.69;4997476;28;20411;-67
2021/07/17 01:43:05;;;;;;;26.63;21.10;;;;;;;20.48;95.34;96825.38;4996868;28;20256;-62
2021/07/17 01:45:38;;;;;;;25.87;21.47;;;;;;;20.43;95.23;96816.59;4993147;28;20572;-62
2021/07/17 01:48:04;;;;;;;24.43;20.70;;;;;;;20.51;94.60;96820.53;4982703;28;20185;-67
2021/07/17 01:50:31;;;;;;;28.97;21.27;;;;;;;20.51;94.75;96823.22;4977791;28;20489;-67
2021/07/17 01:52:58;;;;;;;24.63;20.57;;;;;;;20.44;94.93;96826.97;4977164;28;20472;-62
2021/07/17 01:55:23;;;;;;;25.10;20.57;;;;;;;20.47;94.83;96829.09;4977484;28;20421;-67
2021/07/17 01:57:49;;;;;;;24.13;20.43;;;;;;;20.43;94.91;96822.72;4977520;28;20771;-61
2021/07/17 02:00:17;;;;;;;22.93;20.43;;;;;;;20.38;95.56;96828.06;4977570;28;20181;-67
2021/07/17 02:02:43;;;;;;;26.07;19.40;;;;;;;20.43;95.27;96827.25;5002620;28;20417;-61
2021/07/17 02:05:09;;;;;;;22.03;19.70;;;;;;;20.38;95.55;96822.72;4996897;28;20949;-61
2021/07/17 02:07:35;;;;;;;22.40;18.73;;;;;;;20.24;96.41;96821.75;4997053;28;20417;-62
2021/07/17 02:10:06;;;;;;;25.53;21.23;;;;;;;20.22;96.14;96815.09;4996769;28;20427;-67
2021/07/17 02:12:31;;;;;;;24.60;21.07;;;;;;;20.28;95.71;96814.78;4997123;28;20525;-61
2021/07/17 02:14:57;;;;;;;21.23;18.93;;;;;;;20.36;95.81;96814.19;4996294;28;20424;-61
2021/07/17 02:17:22;;;;;;;25.40;19.30;;;;;;;20.35;95.43;96811.81;4990167;28;20272;-67
2021/07/17 02:19:47;;;;;;;24.20;18.97;;;;;;;20.30;95.68;96807.31;4975935;28;20662;-67
2021/07/17 02:22:13;;;;;;;23.93;21.20;;;;;;;20.36;95.58;96803.53;4975808;28;20332;-67
2021/07/17 02:24:38;;;;;;;25.07;20.40;;;;;;;20.39;95.16;96799.50;4976703;28;20300;-67
2021/07/17 02:27:03;;;;;;;25.23;19.07;;;;;;;20.39;95.57;96805.66;4977098;28;20571;-67
2021/07/17 02:29:29;;;;;;;20.83;18.60;;;;;;;20.37;95.33;96804.31;4977460;28;20696;-67
2021/07/17 02:31:55;;;;;;;27.53;19.10;;;;;;;20.42;95.28;96810.44;4981428;28;20232;-67
2021/07/17 02:34:20;;;;;;;25.77;19.47;;;;;;;20.48;94.90;96803.19;4995868;28;20239;-62
2021/07/17 02:36:46;;;;;;;26.77;20.10;;;;;;;20.46;94.57;96805.34;4996232;28;20557;-62
2021/07/17 02:39:11;;;;;;;24.70;19.20;;;;;;;20.44;94.88;96800.28;4996216;28;20223;-62
2021/07/17 02:41:37;;;;;;;19.73;17.60;;;;;;;20.30;95.07;96812.66;4996215;28;20169;-67
2021/07/17 02:44:03;;;;;;;21.80;17.40;;;;;;;20.33;95.63;96804.09;4995842;28;20193;-67
2021/07/17 02:46:29;;;;;;;21.90;18.80;;;;;;;20.31;95.64;96806.22;4992670;28;20499;-67
2021/07/17 02:48:54;;;;;;;21.93;19.60;;;;;;;20.38;95.38;96803.28;4976636;28;20900;-62
2021/07/17 02:51:19;;;;;;;21.53;18.40;;;;;;;20.46;94.88;96805.34;4976974;28;20183;-62
2021/07/17 02:53:45;;;;;;;21.73;17.37;;;;;;;20.49;94.69;96802.91;4976171;28;20200;-66
2021/07/17 02:56:10;;;;;;;20.60;18.33;;;;;;;20.48;94.76;96804.00;4976620;28;20177;-61
2021/07/17 02:58:36;;;;;;;22.03;19.70;;;;;;;20.49;94.74;96810.91;4976515;28;20536;-67
2021/07/17 03:01:02;;;;;;;19.77;17.63;;;;;;;20.46;95.12;96810.69;4980171;28;20184;-61
2021/07/17 03:03:27;;;;;;;22.13;19.40;;;;;;;20.40;95.05;96817.13;4995543;28;20256;-62
2021/07/17 03:05:53;;;;;;;27.03;19.60;;;;;;;20.31;95.02;96814.22;4994536;28;20694;-62
2021/07/17 03:08:24;;;;;;;22.90;20.40;;;;;;;20.41;94.33;96814.19;4995725;28;20177;-62
2021/07/17 03:10:51;;;;;;;23.43;19.77;;;;;;;20.46;94.00;96816.81;4995994;28;20173;-66
2021/07/17 03:13:16;;;;;;;23.13;18.57;;;;;;;20.36;94.38;96816.88;4995209;28;20420;-66
2021/07/17 03:15:42;;;;;;;25.03;19.73;;;;;;;20.32;93.98;96815.84;4994518;28;20400;-66
2021/07/17 03:18:08;;;;;;;24.73;20.50;;;;;;;20.27;94.02;96813.19;4993725;28;20537;-62
2021/07/17 03:20:33;;;;;;;25.40;20.63;;;;;;;20.32;93.96;96815.03;4995623;28;20174;-61
2021/07/17 03:22:59;;;;;;;26.57;20.17;;;;;;;19.97;95.30;96810.66;4995468;28;20938;-66
2021/07/17 03:25:24;;;;;;;25.33;19.40;;;;;;;20.15;94.44;96812.69;4995178;28;20244;-61
2021/07/17 03:27:50;;;;;;;27.33;21.20;;;;;;;20.27;93.81;96809.75;4995350;28;20178;-66
2021/07/17 03:30:15;;;;;;;25.93;20.47;;;;;;;20.26;93.80;96816.13;4995449;28;20173;-67
2021/07/17 03:32:41;;;;;;;23.20;20.53;;;;;;;20.33;93.67;96816.63;4975554;28;20178;-66
2021/07/17 03:35:07;;;;;;;24.67;20.13;;;;;;;20.29;93.89;96819.03;4976127;28;20190;-67
2021/07/17 03:37:32;;;;;;;24.47;20.73;;;;;;;20.27;93.41;96813.19;4975767;28;20636;-61
2021/07/17 03:39:58;;;;;;;23.63;20.90;;;;;;;20.32;93.21;96810.50;4975740;28;20197;-61
2021/07/17 03:42:23;;;;;;;24.07;20.00;;;;;;;20.34;93.15;96816.38;4976293;28;20181;-62
2021/07/17 03:44:49;;;;;;;26.90;22.77;;;;;;;20.32;93.29;96804.38;4973776;28;20610;-67
2021/07/17 03:47:15;;;;;;;25.93;19.70;;;;;;;20.31;93.19;96813.44;4980021;28;20189;-67
2021/07/17 03:49:40;;;;;;;24.33;20.10;;;;;;;20.25;93.11;96814.56;4986984;28;20189;-61
2021/07/17 03:52:06;;;;;;;22.90;20.43;;;;;;;20.23;93.60;96814.84;4994853;28;20467;-66
2021/07/17 03:54:32;;;;;;;23.10;20.07;;;;;;;20.24;93.45;96811.06;4993179;28;20193;-61
2021/07/17 03:56:58;;;;;;;26.10;20.20;;;;;;;20.24;93.50;96812.94;4994919;28;20175;-67
2021/07/17 03:59:23;;;;;;;26.83;20.87;;;;;;;20.29;93.85;96818.28;4995003;28;20401;-62
2021/07/17 04:01:51;;;;;;;22.43;20.10;;;;;;;20.33;93.13;96825.44;4984981;28;20428;-67
2021/07/17 04:04:17;;;;;;;27.60;21.60;;;;;;;20.32;93.06;96821.19;4988756;28;20224;-67
2021/07/17 04:06:43;;;;;;;24.30;20.73;;;;;;;20.34;93.06;96826.25;4995060;28;20445;-67
2021/07/17 04:09:08;;;;;;;24.87;20.20;;;;;;;20.28;92.87;96827.34;4994682;28;20408;-67
2021/07/17 04:11:33;;;;;;;24.27;19.30;;;;;;;20.28;93.24;96828.16;4988663;28;20194;-66
2021/07/17 04:13:59;;;;;;;22.03;19.73;;;;;;;20.25;93.23;96827.91;4974647;28;20194;-66
2021/07/17 04:16:24;;;;;;;23.90;19.43;;;;;;;20.29;93.16;96826.28;4975068;28;20174;-67
2021/07/17 04:18:50;;;;;;;23.73;19.43;;;;;;;20.28;93.18;96835.34;4974964;28;20206;-61
2021/07/17 04:21:15;;;;;;;24.00;19.23;;;;;;;20.33;92.91;96836.13;4975010;28;20174;-62
2021/07/17 04:23:41;;;;;;;23.43;19.23;;;;;;;20.30;92.55;96838.53;4988348;28;20193;-67
2021/07/17 04:26:07;;;;;;;28.37;20.60;;;;;;;20.32;92.85;96842.53;4976333;28;20594;-66
2021/07/17 04:28:32;;;;;;;25.57;20.93;;;;;;;20.36;93.00;96838.22;4974984;28;20166;-67
2021/07/17 04:30:58;;;;;;;27.37;19.23;;;;;;;20.05;93.75;96847.44;4975093;28;20254;-62
2021/07/17 04:33:23;;;;;;;24.07;19.10;;;;;;;20.11;93.72;96840.22;4974319;28;20236;-66
2021/07/17 04:35:49;;;;;;;23.90;20.57;;;;;;;20.16;93.81;96835.66;4975147;28;20169;-66
2021/07/17 04:38:14;;;;;;;22.27;19.77;;;;;;;20.11;93.84;96840.22;4974704;28;20170;-68
2021/07/17 04:40:39;;;;;;;22.27;19.50;;;;;;;20.21;93.85;96845.53;4974699;28;20181;-62
2021/07/17 04:43:05;;;;;;;22.93;17.87;;;;;;;20.34;93.46;96851.06;4984459;28;20177;-67
2021/07/17 04:45:30;;;;;;;22.17;19.40;;;;;;;20.33;93.58;96854.00;4993848;28;20209;-63
2021/07/17 04:47:56;;;;;;;26.37;21.67;;;;;;;20.43;93.16;96853.97;4994132;28;20174;-66
2021/07/17 04:50:21;;;;;;;23.90;17.93;;;;;;;20.39;93.48;96858.25;4994011;28;20180;-67
2021/07/17 04:52:47;;;;;;;27.60;19.30;;;;;;;20.39;93.32;96861.72;4993591;28;20172;-67
2021/07/17 04:55:12;;;;;;;24.33;19.83;;;;;;;20.30;93.93;96862.56;4994078;28;20193;-63
2021/07/17 04:57:37;;;;;;;21.53;19.20;;;;;;;20.31;93.57;96859.63;4984461;28;20221;-67
2021/07/17 05:00:04;;;;;;;27.33;20.77;;;;;;;20.44;93.13;96861.69;4977844;28;20181;-63
2021/07/17 05:02:30;;;;;;;27.33;20.67;;;;;;;20.56;92.54;96850.69;5009196;28;20179;-63
2021/07/17 05:04:55;;;;;;;22.97;20.53;;;;;;;20.48;92.77;96857.41;5012997;28;20455;-67
2021/07/17 05:07:20;;;;;;;28.07;20.83;;;;;;;20.51;92.62;96853.38;5013841;28;20172;-63
2021/07/17 05:09:46;;;;;;;24.07;20.20;;;;;;;20.47;92.89;96860.34;5013551;28;20627;-67
2021/07/17 05:12:11;;;;;;;27.40;21.20;;;;;;;20.52;92.77;96860.31;5013784;28;20227;-67
2021/07/17 05:14:36;;;;;;;27.67;20.47;;;;;;;20.57;92.45;96857.59;5010158;28;20188;-67
2021/07/17 05:17:02;;;;;;;24.43;20.93;;;;;;;20.47;92.62;96860.34;4993916;28;20632;-67
2021/07/17 05:19:27;;;;;;;26.10;21.07;;;;;;;20.52;92.53;96857.66;4992389;28;20165;-67
2021/07/17 05:21:53;;;;;;;22.90;20.13;;;;;;;20.54;92.59;96860.03;4993877;28;20252;-63
2021/07/17 05:24:18;;;;;;;27.60;19.93;;;;;;;20.36;92.88;96859.59;4993281;28;20224;-67
2021/07/17 05:26:44;;;;;;;24.13;21.27;;;;;;;20.42;92.91;96853.16;4993863;28;20169;-67
2021/07/17 05:29:09;;;;;;;26.20;21.67;;;;;;;20.44;93.05;96850.19;4993534;28;20566;-67
2021/07/17 05:31:35;;;;;;;22.97;20.50;;;;;;;20.47;92.65;96842.44;4972975;28;20213;-64
2021/07/17 05:34:00;;;;;;;22.33;19.60;;;;;;;20.47;92.27;96850.44;4990384;28;20585;-63
2021/07/17 05:36:25;;;;;;;26.30;20.77;;;;;;;20.52;93.00;96841.63;4993611;28;20176;-63
2021/07/17 05:38:51;;;;;;;22.77;20.33;;;;;;;20.45;93.26;96847.25;4993643;28;20174;-67
2021/07/17 05:41:16;;;;;;;22.50;19.97;;;;;;;20.34;93.60;96845.75;4993652;28;20249;-63
2021/07/17 05:43:41;;;;;;;24.53;20.23;;;;;;;20.44;93.39;96840.34;4993007;28;20185;-67
2021/07/17 05:46:07;;;;;;;24.17;20.60;;;;;;;20.40;93.73;96836.59;4993420;28;20240;-67
2021/07/17 05:48:32;;;;;;;22.60;19.87;;;;;;;20.49;93.31;96845.63;4978495;28;20540;-63
2021/07/17 05:50:58;;;;;;;27.93;21.87;;;;;;;20.49;93.46;96847.50;4974512;28;20175;-63
2021/07/17 05:53:23;;;;;;;21.80;19.30;;;;;;;20.53;93.40;96850.44;4973708;28;20170;-67
2021/07/17 05:55:48;;;;;;;21.57;19.10;;;;;;;20.56;93.38;96853.34;4977578;28;20169;-67
2021/07/17 05:58:14;;;;;;;22.73;19.30;;;;;;;20.62;93.20;96854.91;4977759;28;20201;-63
2021/07/17 06:00:42;;;;;;;23.60;20.67;;;;;;;20.56;92.72;96858.69;4978225;28;20170;-67
2021/07/17 06:03:08;;;;;;;26.10;20.40;;;;;;;20.62;92.72;96854.91;5001476;28;20173;-64
2021/07/17 06:05:33;;;;;;;19.70;17.03;;;;;;;20.67;92.19;96860.22;4996756;28;20514;-67
2021/07/17 06:07:58;;;;;;;21.03;18.60;;;;;;;20.70;92.21;96861.53;4996930;28;20176;-63
2021/07/17 06:10:24;;;;;;;20.53;18.30;;;;;;;20.70;92.17;96865.00;4997073;28;20176;-64
2021/07/17 06:12:49;;;;;;;25.43;19.30;;;;;;;20.68;92.14;96863.69;4996435;28;20510;-64
2021/07/17 06:15:15;;;;;;;25.27;19.70;;;;;;;20.70;91.99;96858.88;4996807;28;20196;-67
2021/07/17 06:17:40;;;;;;;24.80;20.27;;;;;;;20.70;91.97;96865.00;4984483;28;20198;-63
2021/07/17 06:20:06;;;;;;;23.50;18.70;;;;;;;20.65;93.06;96861.56;4977507;28;20172;-63
2021/07/17 06:22:31;;;;;;;21.43;18.57;;;;;;;20.68;93.24;96855.66;4987068;28;20751;-63
2021/07/17 06:24:56;;;;;;;25.67;20.70;;;;;;;20.71;92.59;96863.94;4996117;28;20229;-67
2021/07/17 06:27:22;;;;;;;23.60;18.90;;;;;;;20.68;93.19;96869.84;4996376;28;20627;-63
2021/07/17 06:29:47;;;;;;;23.57;18.00;;;;;;;20.75;92.69;96869.50;4996325;28;20228;-64
2021/07/17 06:32:13;;;;;;;26.13;20.13;;;;;;;20.77;92.87;96875.38;4996385;28;20201;-67
2021/07/17 06:34:38;;;;;;;21.87;17.13;;;;;;;20.80;92.25;96882.84;4995973;28;20587;-67
2021/07/17 06:37:03;;;;;;;23.17;19.60;;;;;;;20.89;92.29;96886.53;4996022;28;20209;-63
2021/07/17 06:39:29;;;;;;;21.83;19.27;;;;;;;20.96;91.77;96885.13;4996316;28;20181;-67
2021/07/17 06:41:54;;;;;;;20.70;18.47;;;;;;;20.92;91.83;96897.47;4984813;28;20253;-67
2021/07/17 06:44:19;;;;;;;27.20;20.60;;;;;;;21.02;91.46;96888.59;4976224;28;20190;-63
2021/07/17 06:46:45;;;;;;;25.97;19.97;;;;;;;20.94;91.33;96898.00;4976596;28;20209;-67
2021/07/17 06:49:10;;;;;;;24.47;18.70;;;;;;;20.83;91.57;96895.66;4976591;28;20695;-62
2021/07/17 06:51:36;;;;;;;26.87;17.90;;;;;;;20.80;92.17;96896.22;4977025;28;20176;-63
2021/07/17 06:54:02;;;;;;;25.70;19.73;;;;;;;20.91;91.64;96895.84;4976234;28;20220;-63
2021/07/17 06:56:27;;;;;;;22.10;19.10;;;;;;;20.99;91.14;96892.63;4985718;28;20181;-63
2021/07/17 06:58:53;;;;;;;20.60;18.37;;;;;;;21.03;91.12;96895.56;4996120;28;20409;-63
2021/07/17 07:01:19;;;;;;;20.47;18.37;;;;;;;20.88;92.16;96900.97;4990281;28;20210;-67
2021/07/17 07:03:44;;;;;;;25.90;20.17;;;;;;;20.87;92.62;96896.72;4975805;28;20521;-63
2021/07/17 07:06:10;;;;;;;21.70;19.37;;;;;;;20.96;92.00;96895.03;4975725;28;20178;-63
2021/07/17 07:08:35;;;;;;;23.60;20.40;;;;;;;20.62;93.04;96896.88;4975141;28;20170;-67
2021/07/17 07:11:01;;;;;;;27.33;19.87;;;;;;;20.70;93.12;96891.72;4983962;28;20998;-67
2021/07/17 07:13:27;;;;;;;26.47;20.87;;;;;;;20.86;92.40;96897.75;4995297;28;20173;-64
2021/07/17 07:15:53;;;;;;;24.23;20.90;;;;;;;20.85;92.82;96891.63;4995759;28;20404;-67
2021/07/17 07:18:19;;;;;;;23.87;19.10;;;;;;;20.95;93.11;96894.22;4995981;28;20196;-67
2021/07/17 07:20:44;;;;;;;23.70;20.87;;;;;;;21.04;92.87;96889.91;4995543;28;20476;-67
2021/07/17 07:23:10;;;;;;;26.30;20.10;;;;;;;20.87;93.84;96897.47;4995280;28;20432;-63
2021/07/17 07:25:36;;;;;;;26.77;20.67;;;;;;;20.96;93.52;96895.81;4992105;28;20684;-67
2021/07/17 07:28:02;;;;;;;22.90;20.03;;;;;;;20.92;93.90;96897.47;4995360;28;20213;-68
2021/07/17 07:30:27;;;;;;;27.30;20.10;;;;;;;20.87;93.97;96894.81;4995253;28;20208;-64
2021/07/17 07:32:52;;;;;;;22.33;19.57;;;;;;;20.91;93.71;96900.41;4994925;28;20227;-64
2021/07/17 07:35:23;;;;;;;23.40;19.10;;;;;;;20.95;93.62;96899.56;4995112;28;20209;-64
2021/07/17 07:37:50;;;;;;;23.17;20.77;;;;;;;20.70;94.17;96896.25;4994047;28;20177;-63
2021/07/17 07:40:16;;;;;;;26.90;20.17;;;;;;;20.84;94.52;96895.38;4988923;28;20441;-67
2021/07/17 07:42:42;;;;;;;21.87;19.07;;;;;;;20.96;93.68;96900.38;4975505;28;20884;-67
2021/07/17 07:45:08;;;;;;;22.90;20.13;;;;;;;20.81;94.95;96898.59;4975258;28;20491;-67
2021/07/17 07:47:33;;;;;;;26.53;22.30;;;;;;;20.78;94.58;96907.16;4975636;28;20253;-64
2021/07/17 07:49:59;;;;;;;25.23;20.17;;;;;;;20.70;93.86;96902.41;4975997;28;20405;-67
2021/07/17 07:52:25;;;;;;;23.17;20.10;;;;;;;20.73;94.73;96911.72;4975609;28;20178;-67
2021/07/17 07:54:51;;;;;;;26.03;20.40;;;;;;;20.80;94.23;96914.91;4979534;28;20204;-67
2021/07/17 07:57:17;;;;;;;23.20;19.17;;;;;;;20.95;93.63;96909.47;4985822;28;20174;-67
2021/07/17 07:59:43;;;;;;;23.10;19.63;;;;;;;21.03;93.24;96908.91;4975430;28;20406;-64
2021/07/17 08:02:08;;;;;;;23.43;20.40;;;;;;;21.00;93.47;96904.91;4999810;28;20673;-67
2021/07/17 08:04:33;;;;;;;23.03;20.13;;;;;;;20.98;93.15;96915.03;5013930;28;20697;-64
2021/07/17 08:06:59;;;;;;;27.20;20.23;;;;;;;20.99;94.01;96916.69;5014400;28;20176;-63
2021/07/17 08:09:24;;;;;;;21.70;18.43;;;;;;;21.11;93.60;96916.31;5014370;28;20177;-64
2021/07/17 08:11:50;;;;;;;22.63;19.53;;;;;;;21.11;94.27;96924.34;5006135;28;20747;-67
2021/07/17 08:14:15;;;;;;;25.77;19.93;;;;;;;21.20;94.02;96925.34;4986740;28;20719;-67
2021/07/17 08:16:41;;;;;;;22.43;19.67;;;;;;;21.25;93.82;96918.09;4994361;28;20176;-63
2021/07/17 08:19:06;;;;;;;23.50;19.53;;;;;;;21.17;93.82;96913.34;4993736;28;20201;-63
2021/07/17 08:21:32;;;;;;;22.40;20.10;;;;;;;21.18;93.97;96916.81;4994695;28;20646;-66
2021/07/17 08:23:57;;;;;;;23.63;21.00;;;;;;;21.28;93.47;96914.88;4995895;28;20201;-62
2021/07/17 08:26:22;;;;;;;25.43;20.20;;;;;;;21.28;93.52;96919.41;5009374;28;20583;-62
2021/07/17 08:28:48;;;;;;;22.10;19.80;;;;;;;21.35;92.92;96926.03;4996933;28;20178;-61
2021/07/17 08:31:14;;;;;;;23.07;20.53;;;;;;;21.34;93.02;96926.34;4994314;28;20535;-61
2021/07/17 08:33:39;;;;;;;24.33;21.73;;;;;;;21.35;92.59;96923.38;4994019;28;20525;-62
2021/07/17 08:36:04;;;;;;;23.23;20.70;;;;;;;21.43;91.75;96916.63;4994093;28;20244;-66
2021/07/17 08:38:30;;;;;;;20.60;18.40;;;;;;;21.29;93.16;96929.03;4994212;28;20180;-62
2021/07/17 08:40:57;;;;;;;25.47;20.83;;;;;;;21.31;93.23;96921.53;4996797;28;20578;-62
2021/07/17 08:43:23;;;;;;;28.03;21.90;;;;;;;21.39;92.71;96926.28;4997956;28;20181;-62
2021/07/17 08:45:51;;;;;;;26.17;21.67;;;;;;;21.40;92.75;96911.81;4993810;28;20518;-66
2021/07/17 08:48:20;;;;;;;26.23;21.13;;;;;;;21.43;91.89;96928.09;4994045;28;20412;-67
2021/07/17 08:50:46;;;;;;;26.30;21.30;;;;;;;21.42;91.75;96920.38;4994112;28;20398;-62
2021/07/17 08:53:14;;;;;;;26.87;21.77;;;;;;;21.32;91.84;96933.81;4993847;28;20416;-62
2021/07/17 08:55:40;;;;;;;25.77;22.90;;;;;;;21.45;91.99;96938.53;4993772;28;20424;-63
2021/07/17 08:58:06;;;;;;;27.13;22.57;;;;;;;21.37;92.16;96934.59;4974599;28;20496;-62
2021/07/17 09:00:37;;;;;;;24.20;20.40;;;;;;;21.41;92.48;96922.22;4974517;28;20493;-65
2021/07/17 09:03:05;;;;;;;29.50;22.27;;;;;;;21.49;92.30;96920.84;4974175;28;20628;-62
2021/07/17 09:05:34;;;;;;;22.87;20.47;;;;;;;21.62;91.93;96914.03;4974457;28;20515;-62
2021/07/17 09:08:00;;;;;;;26.00;20.37;;;;;;;21.68;91.89;96912.91;4974581;28;20409;-65
2021/07/17 09:10:38;;;;;;;24.40;20.50;;;;;;;21.83;92.08;96912.81;4973234;28;20421;-61
2021/07/17 09:13:20;;;;;;;22.83;20.53;;;;;;;21.79;91.45;96907.22;4974125;28;20170;-70
2021/07/17 09:15:48;;;;;;;23.63;20.27;;;;;;;21.93;91.82;96901.97;4974680;28;20456;-62
2021/07/17 09:18:25;;;;;;;24.73;20.47;;;;;;;21.96;90.87;96904.88;4974605;28;20414;-62
2021/07/17 09:21:06;;;;;;;22.13;19.83;;;;;;;21.96;91.32;96896.09;4990137;28;20435;-65
2021/07/17 09:23:39;;;;;;;22.87;19.50;;;;;;;22.07;90.32;96903.69;4989001;28;20415;-62
2021/07/17 09:26:13;;;;;;;27.20;20.57;;;;;;;22.05;89.71;96899.72;4988941;28;20456;-64
2021/07/17 09:28:39;;;;;;;22.50;20.07;;;;;;;22.26;88.91;96899.22;4990683;28;20404;-63
2021/07/17 09:31:06;;;;;;;23.00;19.77;;;;;;;22.28;88.58;96901.59;4982740;28;20435;-62
2021/07/17 09:33:33;;;;;;;22.20;20.07;;;;;;;22.38;88.05;96904.94;4973847;28;20969;-63
2021/07/17 09:35:58;;;;;;;21.70;18.77;;;;;;;22.39;87.55;96903.06;4974628;28;20420;-64
2021/07/17 09:38:26;;;;;;;23.53;20.87;;;;;;;22.34;87.84;96905.78;4974657;28;20405;-64
2021/07/17 09:40:57;;;;;;;22.27;18.90;;;;;;;22.25;86.90;96904.81;4974559;28;20540;-64
2021/07/17 09:43:37;;;;;;;24.00;20.03;;;;;;;22.28;87.33;96907.72;4974142;28;20883;-64
2021/07/17 09:46:16;;;;;;;22.07;19.80;;;;;;;22.33;87.09;96909.56;4986592;28;20463;-65
2021/07/17 09:48:47;;;;;;;20.47;18.20;;;;;;;22.27;87.50;96908.81;4993862;28;20427;-65
2021/07/17 09:51:29;;;;;;;23.47;20.50;;;;;;;22.26;87.78;96903.75;4993826;28;20436;-65
2021/07/17 09:54:00;;;;;;;22.93;19.40;;;;;;;22.27;87.40;96908.81;4993307;28;20499;-65
2021/07/17 09:56:34;;;;;;;24.40;19.77;;;;;;;22.15;87.42;96895.06;4993677;28;20416;-65
2021/07/17 09:59:01;;;;;;;20.23;17.70;;;;;;;22.27;87.43;96898.13;4993162;28;20404;-64
2021/07/17 10:01:28;;;;;;;21.60;18.90;;;;;;;22.28;87.52;96896.25;4981690;28;20520;-64
2021/07/17 10:03:59;;;;;;;20.60;18.13;;;;;;;22.26;88.03;96893.03;4993080;28;20939;-64
2021/07/17 10:06:41;;;;;;;21.70;19.50;;;;;;;22.24;87.76;96885.31;4993544;28;20424;-65
2021/07/17 10:09:22;;;;;;;22.20;19.00;;;;;;;22.09;88.04;96885.47;4992961;28;20420;-65
2021/07/17 10:11:53;;;;;;;21.00;17.37;;;;;;;22.07;88.19;96881.47;4993397;28;20619;-66
2021/07/17 10:14:33;;;;;;;20.93;18.33;;;;;;;21.42;90.61;96880.25;4992955;28;21014;-63
2021/07/17 10:17:04;;;;;;;25.87;20.37;;;;;;;21.73;89.65;96884.22;4993337;28;20416;-61
2021/07/17 10:19:29;;;;;;;28.23;19.87;;;;;;;21.74;89.87;96872.44;4984582;28;20425;-62
2021/07/17 10:21:55;;;;;;;21.87;19.40;;;;;;;21.95;89.16;96873.88;4971938;28;20473;-65
2021/07/17 10:24:21;;;;;;;21.57;19.33;;;;;;;22.00;90.26;96868.44;4973202;28;20209;-64
2021/07/17 10:26:49;;;;;;;22.27;19.67;;;;;;;22.00;89.91;96863.09;4973661;28;20421;-65
2021/07/17 10:29:16;;;;;;;22.73;20.43;;;;;;;21.76;90.41;96859.56;4992504;28;20428;-65
2021/07/17 10:31:43;;;;;;;21.53;19.23;;;;;;;21.97;90.67;96868.22;4992977;28;20412;-63
2021/07/17 10:34:08;;;;;;;23.17;20.77;;;;;;;22.06;89.80;96872.66;4992207;28;20790;-63
2021/07/17 10:36:39;;;;;;;21.20;19.00;;;;;;;22.23;89.12;96864.94;4993348;28;20416;-62
2021/07/17 10:39:08;;;;;;;22.57;20.17;;;;;;;21.68;91.37;96856.72;4992947;28;20926;-59
2021/07/17 10:41:36;;;;;;;27.77;22.53;;;;;;;21.99;90.18;96858.03;4980933;28;20904;-59
2021/07/17 10:44:02;;;;;;;24.90;20.13;;;;;;;21.61;90.47;96864.31;4992918;28;20497;-59
2021/07/17 10:46:33;;;;;;;21.20;19.00;;;;;;;21.54;91.42;96859.28;5011638;28;20490;-59
2021/07/17 10:49:01;;;;;;;25.27;21.47;;;;;;;21.84;90.63;96866.22;5012259;28;21003;-59
2021/07/17 10:51:32;;;;;;;25.50;19.80;;;;;;;21.50;90.81;96864.38;5011985;28;20411;-59
2021/07/17 10:54:00;;;;;;;23.70;20.37;;;;;;;21.69;91.66;96864.47;4992351;28;20421;-59
2021/07/17 10:56:28;;;;;;;23.37;19.40;;;;;;;21.44;92.54;96864.72;4992216;28;20420;-60
2021/07/17 10:58:54;;;;;;;22.63;19.83;;;;;;;21.33;92.19;96868.56;4992014;28;20454;-59
2021/07/17 11:01:19;;;;;;;22.73;19.90;;;;;;;21.59;92.50;96864.59;4998101;28;20910;-59
2021/07/17 11:03:45;;;;;;;26.50;19.60;;;;;;;21.57;92.38;96864.06;5011716;28;20192;-59
2021/07/17 11:06:32;;;;;;;21.27;19.07;;;;;;;21.82;91.80;96863.84;5011986;28;20738;-59
2021/07/17 11:09:24;;;;;;;20.97;17.93;;;;;;;21.62;91.26;96863.19;5011900;28;21156;-59
2021/07/17 11:11:50;;;;;;;22.43;19.80;;;;;;;21.77;90.98;96855.84;4989329;28;20417;-59
2021/07/17 11:14:15;;;;;;;20.30;18.20;;;;;;;22.10;90.35;96865.63;4972551;28;20834;-59